createdAt,value
2018-06-30T00:00:34.422Z,21.97
2018-06-30T00:01:34.432Z,21.98
2018-06-30T00:02:34.711Z,21.97
2018-06-30T00:03:34.649Z,21.98
2018-06-30T00:04:34.664Z,21.98
2018-06-30T00:05:34.571Z,21.98
2018-06-30T00:06:34.686Z,21.98
2018-06-30T00:07:34.632Z,21.98
2018-06-30T00:08:34.795Z,21.99
2018-06-30T00:09:34.382Z,21.98
2018-06-30T00:10:34.648Z,21.98
2018-06-30T00:11:34.737Z,21.98
2018-06-30T00:12:34.704Z,21.96
2018-06-30T00:13:34.567Z,21.98
2018-06-30T00:14:34.541Z,21.98
2018-06-30T00:15:34.469Z,21.97
2018-06-30T00:16:34.539Z,21.98
2018-06-30T00:17:34.659Z,21.98
2018-06-30T00:18:34.450Z,21.97
2018-06-30T00:19:34.620Z,21.97
2018-06-30T00:20:34.428Z,21.97
2018-06-30T00:21:34.621Z,21.96
2018-06-30T00:22:34.417Z,21.98
2018-06-30T00:23:34.433Z,21.97
2018-06-30T00:24:34.632Z,21.97
2018-06-30T00:25:34.487Z,21.98
2018-06-30T00:26:34.561Z,21.96
2018-06-30T00:27:34.366Z,21.98
2018-06-30T00:28:34.352Z,21.96
2018-06-30T00:29:34.647Z,21.97
2018-06-30T00:30:34.493Z,21.95
2018-06-30T00:31:34.653Z,21.97
2018-06-30T00:32:34.597Z,21.97
2018-06-30T00:33:34.583Z,21.96
2018-06-30T00:34:34.386Z,21.96
2018-06-30T00:35:34.757Z,21.96
2018-06-30T00:36:34.359Z,21.96
2018-06-30T00:37:34.585Z,21.96
2018-06-30T00:38:34.525Z,21.96
2018-06-30T00:39:34.652Z,21.96
2018-06-30T00:40:34.594Z,21.96
2018-06-30T00:41:34.685Z,21.97
2018-06-30T00:42:34.712Z,21.96
2018-06-30T00:43:34.769Z,21.97
2018-06-30T00:44:34.453Z,21.97
2018-06-30T00:45:34.685Z,21.96
2018-06-30T00:46:34.471Z,21.96
2018-06-30T00:47:34.380Z,21.95
2018-06-30T00:48:34.903Z,21.95
2018-06-30T00:49:34.688Z,21.96
2018-06-30T00:50:34.554Z,21.95
2018-06-30T00:51:34.626Z,21.95
2018-06-30T00:52:34.647Z,21.96
2018-06-30T00:53:34.552Z,21.96
2018-06-30T00:54:34.414Z,21.95
2018-06-30T00:55:34.539Z,21.96
2018-06-30T00:56:34.414Z,21.96
2018-06-30T00:57:34.693Z,21.95
2018-06-30T00:58:34.369Z,21.96
2018-06-30T00:59:34.726Z,21.96
2018-06-30T01:00:34.380Z,21.95
2018-06-30T01:01:34.615Z,21.95
2018-06-30T01:02:34.541Z,21.95
2018-06-30T01:03:34.667Z,21.96
2018-06-30T01:04:34.452Z,21.96
2018-06-30T01:05:34.419Z,21.96
2018-06-30T01:06:34.589Z,21.96
2018-06-30T01:07:34.760Z,21.95
2018-06-30T01:08:34.545Z,21.96
2018-06-30T01:09:34.674Z,21.96
2018-06-30T01:10:34.434Z,21.96
2018-06-30T01:11:34.706Z,21.96
2018-06-30T01:12:34.441Z,21.95
2018-06-30T01:13:34.536Z,21.95
2018-06-30T01:14:34.363Z,21.96
2018-06-30T01:15:34.587Z,21.95
2018-06-30T01:16:34.436Z,21.95
2018-06-30T01:17:34.673Z,21.94
2018-06-30T01:18:34.597Z,21.95
2018-06-30T01:19:34.573Z,21.95
2018-06-30T01:20:34.792Z,21.94
2018-06-30T01:21:34.520Z,21.94
2018-06-30T01:22:34.663Z,21.95
2018-06-30T01:23:34.380Z,21.94
2018-06-30T01:24:34.437Z,21.94
2018-06-30T01:25:34.570Z,21.94
2018-06-30T01:26:34.350Z,21.95
2018-06-30T01:27:34.420Z,21.94
2018-06-30T01:28:34.408Z,21.95
2018-06-30T01:29:34.629Z,21.94
2018-06-30T01:30:34.428Z,21.94
2018-06-30T01:31:34.351Z,21.94
2018-06-30T01:32:34.411Z,21.95
2018-06-30T01:33:34.596Z,21.94
2018-06-30T01:34:34.608Z,21.94
2018-06-30T01:35:34.421Z,21.94
2018-06-30T01:36:34.632Z,21.94
2018-06-30T01:37:34.527Z,21.94
2018-06-30T01:38:34.442Z,21.93
2018-06-30T01:39:34.594Z,21.93
2018-06-30T01:40:34.342Z,21.94
2018-06-30T01:41:34.511Z,21.95
2018-06-30T01:42:34.752Z,21.94
2018-06-30T01:43:34.366Z,21.94
2018-06-30T01:44:34.617Z,21.93
2018-06-30T01:45:34.650Z,21.94
2018-06-30T01:46:34.714Z,21.94
2018-06-30T01:47:34.649Z,21.95
2018-06-30T01:48:34.709Z,21.94
2018-06-30T01:49:34.443Z,21.94
2018-06-30T01:50:34.587Z,21.94
2018-06-30T01:51:34.419Z,21.94
2018-06-30T01:53:10.063Z,21.94
2018-06-30T01:53:34.427Z,21.94
2018-06-30T01:54:34.663Z,21.94
2018-06-30T01:55:34.354Z,21.93
2018-06-30T01:56:34.755Z,21.93
2018-06-30T01:57:34.696Z,21.94
2018-06-30T01:58:34.493Z,21.93
2018-06-30T01:59:34.693Z,21.94
2018-06-30T02:00:34.468Z,21.93
2018-06-30T02:01:34.483Z,21.93
2018-06-30T02:02:34.441Z,21.94
2018-06-30T02:03:34.443Z,21.93
2018-06-30T02:04:34.439Z,21.93
2018-06-30T02:05:34.616Z,21.93
2018-06-30T02:06:34.663Z,21.94
2018-06-30T02:07:34.687Z,21.93
2018-06-30T02:08:34.695Z,21.94
2018-06-30T02:09:34.454Z,21.93
2018-06-30T02:10:34.455Z,21.94
2018-06-30T02:11:34.784Z,21.93
2018-06-30T02:12:34.594Z,21.93
2018-06-30T02:13:44.809Z,21.93
2018-06-30T02:14:34.665Z,21.93
2018-06-30T02:15:34.587Z,21.93
2018-06-30T02:16:34.419Z,21.93
2018-06-30T02:17:34.658Z,21.93
2018-06-30T02:18:34.373Z,21.93
2018-06-30T02:19:34.477Z,21.93
2018-06-30T02:20:34.366Z,21.94
2018-06-30T02:21:34.690Z,21.94
2018-06-30T02:22:34.541Z,21.94
2018-06-30T02:23:34.688Z,21.93
2018-06-30T02:24:34.450Z,21.92
2018-06-30T02:25:34.755Z,21.93
2018-06-30T02:26:34.749Z,21.93
2018-06-30T02:27:34.343Z,21.92
2018-06-30T02:28:34.708Z,21.93
2018-06-30T02:29:34.620Z,21.92
2018-06-30T02:30:34.452Z,21.91
2018-06-30T02:31:34.543Z,21.93
2018-06-30T02:32:34.772Z,21.92
2018-06-30T02:33:34.475Z,21.92
2018-06-30T02:34:34.408Z,21.93
2018-06-30T02:35:34.751Z,21.93
2018-06-30T02:36:34.528Z,21.92
2018-06-30T02:37:34.607Z,21.93
2018-06-30T02:38:34.350Z,21.92
2018-06-30T02:39:34.570Z,21.92
2018-06-30T02:40:34.492Z,21.92
2018-06-30T02:41:34.393Z,21.92
2018-06-30T02:42:34.526Z,21.92
2018-06-30T02:43:34.593Z,21.93
2018-06-30T02:44:34.357Z,21.93
2018-06-30T02:45:34.589Z,21.91
2018-06-30T02:46:34.570Z,21.92
2018-06-30T02:47:34.362Z,21.92
2018-06-30T02:48:34.684Z,21.92
2018-06-30T02:49:34.520Z,21.92
2018-06-30T02:50:34.344Z,21.92
2018-06-30T02:51:34.421Z,21.92
2018-06-30T02:52:34.707Z,21.92
2018-06-30T02:53:34.635Z,21.91
2018-06-30T02:54:34.373Z,21.91
2018-06-30T02:55:34.501Z,21.91
2018-06-30T02:56:34.435Z,21.92
2018-06-30T02:57:34.517Z,21.93
2018-06-30T02:58:34.412Z,21.92
2018-06-30T02:59:34.666Z,21.91
2018-06-30T03:00:34.668Z,21.92
2018-06-30T03:01:34.518Z,21.91
2018-06-30T03:02:34.700Z,21.92
2018-06-30T03:03:34.446Z,21.91
2018-06-30T03:04:34.506Z,21.93
2018-06-30T03:05:34.614Z,21.91
2018-06-30T03:06:34.728Z,21.91
2018-06-30T03:07:34.394Z,21.91
2018-06-30T03:08:34.621Z,21.92
2018-06-30T03:09:34.665Z,21.9
2018-06-30T03:10:34.457Z,21.91
2018-06-30T03:11:34.600Z,21.91
2018-06-30T03:12:34.501Z,21.9
2018-06-30T03:13:34.571Z,21.91
2018-06-30T03:14:34.661Z,21.91
2018-06-30T03:15:34.472Z,21.92
2018-06-30T03:16:34.692Z,21.92
2018-06-30T03:17:34.390Z,21.9
2018-06-30T03:18:34.609Z,21.9
2018-06-30T03:19:34.433Z,21.9
2018-06-30T03:20:34.687Z,21.91
2018-06-30T03:21:34.376Z,21.91
2018-06-30T03:22:34.512Z,21.92
2018-06-30T03:23:34.611Z,21.91
2018-06-30T03:24:34.529Z,21.91
2018-06-30T03:25:34.369Z,21.92
2018-06-30T03:26:34.720Z,21.92
2018-06-30T03:27:34.611Z,21.9
2018-06-30T03:28:34.561Z,21.89
2018-06-30T03:29:34.434Z,21.91
2018-06-30T03:30:34.375Z,21.91
2018-06-30T03:31:34.445Z,21.91
2018-06-30T03:32:34.588Z,21.91
2018-06-30T03:33:34.397Z,21.91
2018-06-30T03:34:34.316Z,21.91
2018-06-30T03:35:34.723Z,21.91
2018-06-30T03:36:34.541Z,21.9
2018-06-30T03:37:34.407Z,21.91
2018-06-30T03:38:34.600Z,21.91
2018-06-30T03:39:34.590Z,21.9
2018-06-30T03:40:34.441Z,21.92
2018-06-30T03:41:34.299Z,21.91
2018-06-30T03:42:34.515Z,21.91
2018-06-30T03:43:34.263Z,21.9
2018-06-30T03:44:34.449Z,21.9
2018-06-30T03:45:34.544Z,21.9
2018-06-30T03:46:34.607Z,21.9
2018-06-30T03:47:34.415Z,21.9
2018-06-30T03:48:34.389Z,21.91
2018-06-30T03:49:34.482Z,21.91
2018-06-30T03:50:34.317Z,21.9
2018-06-30T03:51:34.549Z,21.89
2018-06-30T03:52:34.317Z,21.9
2018-06-30T03:53:34.420Z,21.91
2018-06-30T03:54:34.384Z,21.9
2018-06-30T03:55:34.292Z,21.9
2018-06-30T03:56:34.383Z,21.89
2018-06-30T03:57:34.435Z,21.89
2018-06-30T03:58:34.523Z,21.9
2018-06-30T03:59:34.515Z,21.9
2018-06-30T04:00:34.464Z,21.89
2018-06-30T04:01:34.362Z,21.89
2018-06-30T04:02:34.495Z,21.89
2018-06-30T04:03:34.533Z,21.89
2018-06-30T04:04:34.591Z,21.9
2018-06-30T04:05:34.521Z,21.91
2018-06-30T04:06:34.632Z,21.89
2018-06-30T04:07:34.538Z,21.9
2018-06-30T04:08:34.512Z,21.9
2018-06-30T04:09:34.436Z,21.89
2018-06-30T04:10:34.351Z,21.9
2018-06-30T04:11:34.420Z,21.89
2018-06-30T04:12:34.428Z,21.89
2018-06-30T04:13:34.397Z,21.9
2018-06-30T04:14:34.628Z,21.89
2018-06-30T04:15:34.527Z,21.89
2018-06-30T04:16:34.630Z,21.9
2018-06-30T04:17:34.346Z,21.9
2018-06-30T04:18:34.434Z,21.89
2018-06-30T04:19:34.336Z,21.9
2018-06-30T04:20:34.618Z,21.9
2018-06-30T04:21:34.430Z,21.89
2018-06-30T04:22:34.578Z,21.89
2018-06-30T04:23:34.488Z,21.89
2018-06-30T04:24:34.443Z,21.89
2018-06-30T04:25:34.549Z,21.88
2018-06-30T04:26:34.471Z,21.89
2018-06-30T04:27:34.597Z,21.89
2018-06-30T04:28:34.410Z,21.9
2018-06-30T04:29:34.546Z,21.9
2018-06-30T04:30:34.338Z,21.89
2018-06-30T04:31:34.434Z,21.9
2018-06-30T04:32:34.446Z,21.89
2018-06-30T04:33:34.570Z,21.88
2018-06-30T04:34:34.447Z,21.9
2018-06-30T04:35:34.278Z,21.89
2018-06-30T04:36:34.291Z,21.89
2018-06-30T04:37:34.499Z,21.89
2018-06-30T04:38:34.469Z,21.89
2018-06-30T04:39:34.387Z,21.88
2018-06-30T04:40:34.419Z,21.89
2018-06-30T04:41:34.321Z,21.89
2018-06-30T04:42:34.488Z,21.89
2018-06-30T04:43:34.523Z,21.89
2018-06-30T04:44:34.427Z,21.9
2018-06-30T04:45:34.543Z,21.88
2018-06-30T04:46:34.652Z,21.88
2018-06-30T04:47:34.566Z,21.89
2018-06-30T04:48:34.330Z,21.88
2018-06-30T04:49:34.423Z,21.88
2018-06-30T04:50:34.382Z,21.88
2018-06-30T04:51:34.323Z,21.88
2018-06-30T04:52:34.437Z,21.88
2018-06-30T04:53:34.400Z,21.88
2018-06-30T04:54:34.602Z,21.88
2018-06-30T04:55:34.462Z,21.89
2018-06-30T04:56:34.542Z,21.88
2018-06-30T04:57:34.527Z,21.88
2018-06-30T04:58:34.377Z,21.88
2018-06-30T04:59:34.360Z,21.88
2018-06-30T05:00:34.388Z,21.88
2018-06-30T05:01:34.534Z,21.88
2018-06-30T05:02:34.482Z,21.9
2018-06-30T05:03:34.552Z,21.88
2018-06-30T05:04:34.447Z,21.88
2018-06-30T05:05:34.504Z,21.88
2018-06-30T05:06:34.425Z,21.88
2018-06-30T05:07:34.436Z,21.88
2018-06-30T05:08:34.356Z,21.88
2018-06-30T05:09:34.443Z,21.87
2018-06-30T05:10:34.509Z,21.88
2018-06-30T05:11:34.431Z,21.88
2018-06-30T05:12:34.408Z,21.88
2018-06-30T05:13:34.306Z,21.88
2018-06-30T05:14:34.656Z,21.88
2018-06-30T05:15:34.749Z,21.88
2018-06-30T05:16:34.462Z,21.88
2018-06-30T05:17:34.292Z,21.88
2018-06-30T05:18:34.439Z,21.88
2018-06-30T05:19:34.408Z,21.87
2018-06-30T05:20:34.665Z,21.88
2018-06-30T05:21:34.461Z,21.87
2018-06-30T05:22:34.526Z,21.89
2018-06-30T05:23:34.422Z,21.88
2018-06-30T05:24:34.407Z,21.88
2018-06-30T05:25:34.443Z,21.87
2018-06-30T05:26:34.305Z,21.88
2018-06-30T05:27:34.652Z,21.87
2018-06-30T05:28:34.478Z,21.87
2018-06-30T05:29:34.520Z,21.87
2018-06-30T05:30:34.520Z,21.88
2018-06-30T05:31:34.292Z,21.88
2018-06-30T05:32:34.402Z,21.87
2018-06-30T05:33:34.560Z,21.88
2018-06-30T05:34:34.354Z,21.87
2018-06-30T05:35:44.408Z,21.87
2018-06-30T05:36:34.462Z,21.87
2018-06-30T05:37:34.330Z,21.87
2018-06-30T05:38:34.489Z,21.88
2018-06-30T05:39:34.392Z,21.87
2018-06-30T05:40:34.322Z,21.88
2018-06-30T05:41:34.515Z,21.88
2018-06-30T05:42:34.386Z,21.87
2018-06-30T05:43:34.359Z,21.87
2018-06-30T05:44:34.665Z,21.88
2018-06-30T05:45:34.662Z,21.87
2018-06-30T05:46:34.632Z,21.87
2018-06-30T05:47:34.426Z,21.87
2018-06-30T05:48:34.360Z,21.87
2018-06-30T05:49:34.242Z,21.88
2018-06-30T05:50:34.350Z,21.87
2018-06-30T05:51:34.638Z,21.87
2018-06-30T05:52:34.699Z,21.87
2018-06-30T05:53:34.447Z,21.88
2018-06-30T05:54:34.606Z,21.87
2018-06-30T05:55:34.462Z,21.88
2018-06-30T05:56:34.660Z,21.87
2018-06-30T05:57:34.292Z,21.87
2018-06-30T05:58:34.305Z,21.87
2018-06-30T05:59:34.404Z,21.88
2018-06-30T06:00:34.396Z,21.88
2018-06-30T06:01:34.458Z,21.88
2018-06-30T06:02:34.647Z,21.88
2018-06-30T06:03:34.395Z,21.88
2018-06-30T06:04:34.493Z,21.88
2018-06-30T06:05:34.564Z,21.88
2018-06-30T06:06:34.495Z,21.87
2018-06-30T06:07:34.308Z,21.88
2018-06-30T06:08:34.489Z,21.88
2018-06-30T06:09:34.372Z,21.88
2018-06-30T06:10:34.452Z,21.88
2018-06-30T06:11:34.596Z,21.87
2018-06-30T06:12:34.534Z,21.87
2018-06-30T06:13:34.465Z,21.87
2018-06-30T06:14:34.334Z,21.88
2018-06-30T06:15:34.361Z,21.87
2018-06-30T06:16:34.432Z,21.88
2018-06-30T06:17:34.491Z,21.87
2018-06-30T06:18:34.291Z,21.88
2018-06-30T06:19:34.437Z,21.88
2018-06-30T06:20:34.713Z,21.88
2018-06-30T06:21:34.476Z,21.87
2018-06-30T06:22:34.711Z,21.88
2018-06-30T06:23:34.378Z,21.88
2018-06-30T06:24:34.453Z,21.88
2018-06-30T06:25:34.477Z,21.87
2018-06-30T06:26:34.375Z,21.88
2018-06-30T06:27:34.649Z,21.88
2018-06-30T06:28:34.310Z,21.88
2018-06-30T06:29:34.285Z,21.88
2018-06-30T06:30:34.419Z,21.88
2018-06-30T06:31:34.465Z,21.89
2018-06-30T06:32:34.609Z,21.88
2018-06-30T06:33:34.482Z,21.87
2018-06-30T06:34:34.984Z,21.88
2018-06-30T06:35:34.483Z,21.88
2018-06-30T06:36:34.589Z,21.88
2018-06-30T06:37:34.663Z,21.9
2018-06-30T06:38:34.293Z,21.88
2018-06-30T06:39:34.489Z,21.88
2018-06-30T06:40:34.445Z,21.88
2018-06-30T06:41:34.512Z,21.89
2018-06-30T06:42:34.554Z,21.89
2018-06-30T06:43:34.437Z,21.89
2018-06-30T06:44:34.637Z,21.88
2018-06-30T06:45:34.339Z,21.88
2018-06-30T06:46:34.677Z,21.89
2018-06-30T06:47:34.298Z,21.88
2018-06-30T06:48:34.323Z,21.88
2018-06-30T06:49:34.320Z,21.88
2018-06-30T06:50:34.616Z,21.89
2018-06-30T06:51:34.325Z,21.88
2018-06-30T06:52:34.355Z,21.88
2018-06-30T06:53:34.535Z,21.88
2018-06-30T06:54:34.528Z,21.88
2018-06-30T06:55:34.468Z,21.88
2018-06-30T06:56:34.368Z,21.88
2018-06-30T06:57:34.546Z,21.87
2018-06-30T06:58:34.434Z,21.89
2018-06-30T06:59:34.672Z,21.88
2018-06-30T07:00:34.372Z,21.87
2018-06-30T07:01:34.522Z,21.88
2018-06-30T07:02:34.381Z,21.88
2018-06-30T07:03:34.456Z,21.9
2018-06-30T07:04:34.521Z,21.89
2018-06-30T07:05:34.268Z,21.89
2018-06-30T07:06:34.273Z,21.88
2018-06-30T07:07:34.517Z,21.89
2018-06-30T07:08:34.613Z,21.88
2018-06-30T07:09:34.372Z,21.89
2018-06-30T07:10:34.493Z,21.89
2018-06-30T07:11:34.462Z,21.89
2018-06-30T07:12:34.616Z,21.9
2018-06-30T07:13:34.689Z,21.89
2018-06-30T07:14:34.265Z,21.89
2018-06-30T07:15:34.343Z,21.89
2018-06-30T07:16:34.439Z,21.89
2018-06-30T07:17:34.395Z,21.89
2018-06-30T07:18:34.498Z,21.89
2018-06-30T07:19:34.506Z,21.89
2018-06-30T07:20:34.350Z,21.9
2018-06-30T07:21:34.596Z,21.89
2018-06-30T07:22:34.406Z,21.89
2018-06-30T07:23:34.337Z,21.89
2018-06-30T07:24:34.590Z,21.89
2018-06-30T07:25:34.567Z,21.89
2018-06-30T07:26:34.598Z,21.91
2018-06-30T07:27:34.425Z,21.89
2018-06-30T07:28:34.265Z,21.9
2018-06-30T07:29:34.463Z,21.89
2018-06-30T07:30:34.418Z,21.89
2018-06-30T07:31:34.625Z,21.89
2018-06-30T07:32:34.366Z,21.9
2018-06-30T07:33:34.443Z,21.9
2018-06-30T07:34:34.323Z,21.9
2018-06-30T07:35:34.431Z,21.88
2018-06-30T07:36:34.447Z,21.88
2018-06-30T07:37:34.541Z,21.89
2018-06-30T07:38:34.614Z,21.89
2018-06-30T07:39:34.411Z,21.89
2018-06-30T07:40:34.489Z,21.89
2018-06-30T07:41:44.427Z,21.88
2018-06-30T07:42:34.773Z,21.89
2018-06-30T07:43:34.463Z,21.89
2018-06-30T07:44:34.460Z,21.89
2018-06-30T07:45:34.463Z,21.88
2018-06-30T07:46:34.365Z,21.89
2018-06-30T07:47:34.513Z,21.87
2018-06-30T07:48:34.338Z,21.89
2018-06-30T07:49:34.658Z,21.89
2018-06-30T07:50:34.439Z,21.89
2018-06-30T07:51:34.370Z,21.88
2018-06-30T07:52:34.473Z,21.89
2018-06-30T07:53:34.613Z,21.89
2018-06-30T07:54:34.385Z,21.9
2018-06-30T07:55:34.248Z,21.91
2018-06-30T07:56:34.459Z,21.9
2018-06-30T07:57:34.342Z,21.9
2018-06-30T07:58:34.495Z,21.9
2018-06-30T07:59:34.519Z,21.9
2018-06-30T08:00:34.451Z,21.9
2018-06-30T08:01:34.321Z,21.9
2018-06-30T08:02:34.461Z,21.91
2018-06-30T08:03:34.439Z,21.89
2018-06-30T08:04:34.299Z,21.9
2018-06-30T08:05:34.397Z,21.9
2018-06-30T08:06:34.664Z,21.9
2018-06-30T08:07:34.425Z,21.91
2018-06-30T08:08:34.422Z,21.9
2018-06-30T08:09:34.428Z,21.9
2018-06-30T08:10:34.264Z,21.9
2018-06-30T08:11:34.426Z,21.91
2018-06-30T08:12:34.601Z,21.9
2018-06-30T08:13:34.410Z,21.91
2018-06-30T08:14:34.697Z,21.9
2018-06-30T08:15:34.616Z,21.92
2018-06-30T08:16:34.322Z,21.95
2018-06-30T08:17:34.410Z,21.93
2018-06-30T08:18:34.328Z,21.92
2018-06-30T08:19:34.238Z,21.93
2018-06-30T08:20:34.341Z,21.91
2018-06-30T08:21:34.319Z,21.92
2018-06-30T08:22:34.470Z,21.91
2018-06-30T08:23:34.488Z,21.92
2018-06-30T08:24:34.292Z,21.92
2018-06-30T08:25:34.297Z,21.92
2018-06-30T08:26:34.391Z,21.92
2018-06-30T08:27:34.413Z,21.93
2018-06-30T08:28:34.180Z,21.91
2018-06-30T08:29:34.596Z,21.92
2018-06-30T08:30:34.384Z,21.92
2018-06-30T08:31:34.530Z,21.92
2018-06-30T08:32:34.484Z,21.93
2018-06-30T08:33:34.497Z,21.92
2018-06-30T08:34:34.490Z,21.92
2018-06-30T08:35:34.468Z,21.92
2018-06-30T08:36:34.457Z,21.92
2018-06-30T08:37:34.282Z,21.92
2018-06-30T08:38:34.326Z,21.92
2018-06-30T08:39:34.282Z,21.92
2018-06-30T08:40:34.426Z,21.92
2018-06-30T08:41:34.379Z,21.92
2018-06-30T08:42:34.458Z,21.92
2018-06-30T08:43:34.267Z,21.93
2018-06-30T08:44:34.642Z,21.92
2018-06-30T08:45:34.512Z,21.92
2018-06-30T08:46:34.334Z,21.92
2018-06-30T08:47:34.346Z,21.92
2018-06-30T08:48:34.486Z,21.92
2018-06-30T08:49:34.772Z,21.92
2018-06-30T08:50:34.415Z,21.92
2018-06-30T08:51:34.452Z,21.92
2018-06-30T08:52:34.350Z,21.93
2018-06-30T08:53:34.390Z,21.93
2018-06-30T08:54:34.357Z,21.92
2018-06-30T08:55:44.463Z,21.91
2018-06-30T08:56:34.455Z,21.92
2018-06-30T08:57:34.375Z,21.91
2018-06-30T08:58:34.380Z,21.91
2018-06-30T08:59:34.796Z,21.91
2018-06-30T09:00:34.439Z,21.92
2018-06-30T09:01:34.514Z,21.92
2018-06-30T09:02:34.455Z,21.91
2018-06-30T09:03:34.649Z,21.91
2018-06-30T09:04:34.672Z,21.91
2018-06-30T09:05:34.413Z,21.92
2018-06-30T09:06:34.661Z,21.91
2018-06-30T09:07:34.450Z,21.92
2018-06-30T09:08:34.542Z,21.92
2018-06-30T09:09:34.257Z,21.91
2018-06-30T09:10:34.368Z,21.91
2018-06-30T09:11:34.349Z,21.91
2018-06-30T09:12:34.299Z,21.91
2018-06-30T09:13:34.440Z,21.91
2018-06-30T09:14:34.402Z,21.92
2018-06-30T09:15:34.478Z,21.92
2018-06-30T09:16:34.441Z,21.92
2018-06-30T09:17:34.280Z,21.91
2018-06-30T09:18:34.341Z,21.89
2018-06-30T09:19:34.295Z,21.92
2018-06-30T09:20:34.222Z,21.92
2018-06-30T09:21:34.612Z,21.91
2018-06-30T09:22:34.394Z,21.92
2018-06-30T09:23:34.516Z,21.93
2018-06-30T09:24:34.290Z,21.93
2018-06-30T09:25:34.429Z,21.94
2018-06-30T09:26:34.302Z,21.95
2018-06-30T09:27:34.435Z,21.96
2018-06-30T09:28:34.248Z,21.96
2018-06-30T09:29:34.216Z,21.99
2018-06-30T09:30:34.321Z,21.98
2018-06-30T09:31:34.485Z,22.03
2018-06-30T09:32:34.410Z,22.02
2018-06-30T09:33:34.447Z,22.03
2018-06-30T09:34:34.285Z,22.02
2018-06-30T09:35:34.216Z,22.03
2018-06-30T09:36:34.393Z,22.03
2018-06-30T09:37:34.298Z,22.02
2018-06-30T09:38:34.190Z,22.01
2018-06-30T09:39:34.305Z,22.03
2018-06-30T09:40:34.320Z,22.04
2018-06-30T09:41:34.298Z,22.03
2018-06-30T09:42:34.336Z,22.05
2018-06-30T09:43:34.553Z,22.07
2018-06-30T09:44:34.272Z,22.06
2018-06-30T09:45:34.572Z,22.04
2018-06-30T09:46:34.762Z,22.04
2018-06-30T09:47:34.266Z,22.05
2018-06-30T09:48:34.350Z,22.04
2018-06-30T09:49:34.606Z,22.06
2018-06-30T09:50:34.453Z,22.05
2018-06-30T09:51:34.471Z,22.05
2018-06-30T09:52:34.432Z,22.05
2018-06-30T09:53:34.301Z,22.06
2018-06-30T09:54:34.697Z,22.06
2018-06-30T09:55:34.412Z,22.07
2018-06-30T09:56:35.769Z,22.07
2018-06-30T09:57:34.535Z,22.05
2018-06-30T09:58:34.722Z,22.06
2018-06-30T09:59:34.417Z,22.06
2018-06-30T10:00:34.812Z,22.05
2018-06-30T10:01:34.743Z,22.04
2018-06-30T10:02:34.764Z,22.07
2018-06-30T10:03:34.447Z,22.06
2018-06-30T10:04:34.736Z,22.06
2018-06-30T10:05:34.257Z,22.06
2018-06-30T10:06:34.335Z,22.06
2018-06-30T10:07:34.750Z,22.07
2018-06-30T10:08:34.754Z,22.05
2018-06-30T10:09:34.437Z,22.07
2018-06-30T10:10:34.830Z,22.07
2018-06-30T10:11:34.774Z,22.07
2018-06-30T10:12:34.779Z,22.08
2018-06-30T10:13:34.465Z,22.09
2018-06-30T10:14:34.553Z,22.09
2018-06-30T10:15:34.266Z,22.1
2018-06-30T10:16:34.346Z,22.11
2018-06-30T10:17:34.650Z,22.11
2018-06-30T10:18:34.531Z,22.12
2018-06-30T10:19:34.395Z,22.13
2018-06-30T10:20:34.370Z,22.12
2018-06-30T10:21:34.404Z,22.15
2018-06-30T10:22:34.389Z,22.15
2018-06-30T10:23:34.606Z,22.15
2018-06-30T10:24:35.224Z,22.15
2018-06-30T10:25:34.375Z,22.16
2018-06-30T10:26:34.594Z,22.17
2018-06-30T10:27:34.584Z,22.19
2018-06-30T10:28:34.414Z,22.19
2018-06-30T10:29:34.634Z,22.19
2018-06-30T10:30:34.246Z,22.18
2018-06-30T10:31:34.687Z,22.19
2018-06-30T10:32:34.446Z,22.18
2018-06-30T10:33:34.454Z,22.2
2018-06-30T10:34:34.321Z,22.18
2018-06-30T10:35:34.390Z,22.2
2018-06-30T10:36:34.399Z,22.18
2018-06-30T10:37:34.462Z,22.17
2018-06-30T10:38:34.337Z,22.18
2018-06-30T10:39:34.357Z,22.17
2018-06-30T10:40:34.730Z,22.17
2018-06-30T10:41:34.401Z,22.17
2018-06-30T10:42:34.385Z,22.16
2018-06-30T10:43:34.227Z,22.16
2018-06-30T10:44:34.558Z,22.16
2018-06-30T10:45:34.470Z,22.15
2018-06-30T10:46:34.758Z,22.16
2018-06-30T10:47:34.258Z,22.15
2018-06-30T10:48:34.310Z,22.14
2018-06-30T10:49:34.733Z,22.14
2018-06-30T10:50:34.239Z,22.14
2018-06-30T10:51:34.308Z,22.12
2018-06-30T10:52:34.287Z,22.13
2018-06-30T10:53:34.405Z,22.13
2018-06-30T10:54:34.256Z,22.12
2018-06-30T10:55:34.323Z,22.12
2018-06-30T10:56:34.391Z,22.13
2018-06-30T10:57:34.422Z,22.12
2018-06-30T10:58:34.611Z,22.13
2018-06-30T10:59:34.550Z,22.11
2018-06-30T11:00:34.470Z,22.11
2018-06-30T11:01:34.366Z,22.12
2018-06-30T11:02:34.375Z,22.12
2018-06-30T11:03:34.410Z,22.1
2018-06-30T11:04:34.825Z,22.1
2018-06-30T11:05:34.516Z,22.1
2018-06-30T11:06:34.415Z,22.1
2018-06-30T11:07:34.248Z,22.1
2018-06-30T11:08:34.701Z,22.1
2018-06-30T11:09:34.462Z,22.1
2018-06-30T11:10:34.304Z,22.1
2018-06-30T11:11:34.416Z,22.09
2018-06-30T11:12:34.316Z,22.11
2018-06-30T11:13:34.374Z,22.1
2018-06-30T11:14:34.592Z,22.1
2018-06-30T11:15:36.436Z,22.1
2018-06-30T11:16:34.433Z,22.1
2018-06-30T11:17:34.471Z,22.09
2018-06-30T11:18:34.328Z,22.08
2018-06-30T11:19:34.279Z,22.08
2018-06-30T11:20:34.404Z,22.08
2018-06-30T11:21:34.399Z,22.09
2018-06-30T11:22:34.351Z,22.09
2018-06-30T11:23:34.361Z,22.08
2018-06-30T11:24:34.408Z,22.08
2018-06-30T11:25:34.370Z,22.08
2018-06-30T11:26:34.548Z,22.09
2018-06-30T11:27:34.262Z,22.08
2018-06-30T11:28:34.253Z,22.08
2018-06-30T11:29:34.400Z,22.08
2018-06-30T11:30:34.716Z,22.08
2018-06-30T11:31:34.463Z,22.08
2018-06-30T11:32:34.480Z,22.08
2018-06-30T11:33:34.431Z,22.07
2018-06-30T11:34:34.476Z,22.06
2018-06-30T11:35:34.343Z,22.07
2018-06-30T11:36:34.502Z,22.06
2018-06-30T11:37:44.321Z,22.07
2018-06-30T11:38:34.322Z,22.06
2018-06-30T11:39:34.332Z,22.06
2018-06-30T11:40:34.389Z,22.07
2018-06-30T11:41:34.340Z,22.06
2018-06-30T11:42:44.181Z,22.06
2018-06-30T11:43:34.473Z,22.05
2018-06-30T11:44:34.360Z,22.06
2018-06-30T11:45:34.372Z,22.05
2018-06-30T11:46:34.379Z,22.04
2018-06-30T11:47:44.383Z,22.05
2018-06-30T11:48:34.390Z,22.06
2018-06-30T11:49:34.398Z,22.05
2018-06-30T11:50:34.405Z,22.06
2018-06-30T11:51:34.417Z,22.04
2018-06-30T11:52:34.411Z,22.04
2018-06-30T11:53:34.518Z,22.06
2018-06-30T11:54:34.488Z,22.05
2018-06-30T11:55:34.442Z,22.05
2018-06-30T11:56:34.443Z,22.04
2018-06-30T11:57:34.495Z,22.05
2018-06-30T11:58:34.678Z,22.05
2018-06-30T11:59:34.463Z,22.05
2018-06-30T12:00:34.366Z,22.04
2018-06-30T12:01:34.273Z,22.05
2018-06-30T12:02:34.324Z,22.05
2018-06-30T12:03:34.323Z,22.03
2018-06-30T12:04:34.273Z,22.05
2018-06-30T12:05:34.422Z,22.04
2018-06-30T12:06:34.166Z,22.04
2018-06-30T12:07:34.255Z,22.04
2018-06-30T12:08:34.458Z,22.04
2018-06-30T12:09:34.288Z,22.03
2018-06-30T12:10:34.217Z,22.04
2018-06-30T12:11:34.565Z,22.03
2018-06-30T12:12:34.129Z,22.03
2018-06-30T12:13:34.270Z,22.04
2018-06-30T12:14:34.416Z,22.04
2018-06-30T12:15:34.215Z,22.04
2018-06-30T12:16:34.313Z,22.03
2018-06-30T12:17:34.454Z,22.03
2018-06-30T12:18:34.420Z,22.04
2018-06-30T12:19:34.329Z,22.03
2018-06-30T12:20:34.285Z,22.03
2018-06-30T12:21:34.388Z,22.03
2018-06-30T12:22:34.460Z,22.03
2018-06-30T12:23:34.203Z,22.04
2018-06-30T12:24:34.314Z,22.03
2018-06-30T12:25:34.427Z,22.02
2018-06-30T12:26:34.150Z,22.02
2018-06-30T12:27:34.248Z,22.02
2018-06-30T12:28:34.246Z,22.03
2018-06-30T12:29:34.154Z,22.02
2018-06-30T12:30:34.255Z,22.02
2018-06-30T12:31:34.413Z,22.04
2018-06-30T12:32:34.199Z,22.02
2018-06-30T12:33:34.281Z,22.02
2018-06-30T12:34:34.372Z,22.02
2018-06-30T12:35:34.136Z,22.03
2018-06-30T12:36:34.510Z,22.02
2018-06-30T12:37:44.478Z,22.03
2018-06-30T12:38:34.403Z,22.02
2018-06-30T12:39:34.472Z,22.03
2018-06-30T12:40:34.393Z,22.01
2018-06-30T12:41:34.344Z,22.02
2018-06-30T12:42:34.086Z,22.03
2018-06-30T12:43:34.534Z,22.02
2018-06-30T12:44:35.328Z,22.03
2018-06-30T12:45:34.490Z,22.02
2018-06-30T12:46:34.361Z,22.02
2018-06-30T12:47:34.364Z,22.02
2018-06-30T12:48:34.283Z,22.02
2018-06-30T12:49:34.128Z,22.02
2018-06-30T12:50:34.316Z,22.02
2018-06-30T12:51:34.119Z,22.02
2018-06-30T12:52:34.132Z,22.03
2018-06-30T12:53:34.289Z,22.01
2018-06-30T12:54:34.391Z,22.02
2018-06-30T12:55:34.333Z,22.02